createdAt,value
2022-08-20T00:00:14.674Z,0
2022-08-20T00:01:14.425Z,0
2022-08-20T00:02:15.190Z,0
2022-08-20T00:03:14.158Z,0
2022-08-20T00:04:16.036Z,0
2022-08-20T00:05:14.641Z,0
2022-08-20T00:06:14.511Z,0
2022-08-20T00:07:14.396Z,0
2022-08-20T00:08:14.886Z,0
2022-08-20T00:09:14.647Z,0
2022-08-20T00:10:14.367Z,0
2022-08-20T00:11:15.517Z,0
2022-08-20T00:12:14.352Z,0
2022-08-20T00:13:20.683Z,0
2022-08-20T00:14:14.597Z,0
2022-08-20T00:15:14.579Z,0
2022-08-20T00:16:14.577Z,0
2022-08-20T00:17:14.573Z,0
2022-08-20T00:18:16.859Z,0
2022-08-20T00:19:14.554Z,0
2022-08-20T00:20:14.813Z,0
2022-08-20T00:21:20.920Z,0
2022-08-20T00:22:14.539Z,0
2022-08-20T00:23:17.273Z,0
2022-08-20T00:24:14.532Z,0
2022-08-20T00:25:14.524Z,0
2022-08-20T00:26:14.262Z,0
2022-08-20T00:27:14.777Z,0
2022-08-20T00:28:14.246Z,0
2022-08-20T00:29:16.011Z,0
2022-08-20T00:30:14.008Z,0
2022-08-20T00:31:14.768Z,0
2022-08-20T00:32:14.483Z,0
2022-08-20T00:33:14.724Z,0
2022-08-20T00:34:14.736Z,0
2022-08-20T00:35:20.009Z,0
2022-08-20T00:36:14.479Z,0
2022-08-20T00:37:14.713Z,0
2022-08-20T00:38:14.194Z,0
2022-08-20T00:39:14.441Z,0
2022-08-20T00:40:29.382Z,0
2022-08-20T00:41:14.182Z,0
2022-08-20T00:42:14.169Z,0
2022-08-20T00:43:14.411Z,0
2022-08-20T00:44:14.158Z,0
2022-08-20T00:45:14.907Z,0
2022-08-20T00:46:14.390Z,0
2022-08-20T00:47:14.653Z,0
2022-08-20T00:48:13.887Z,0
2022-08-20T00:49:14.129Z,0
2022-08-20T00:50:19.429Z,0
2022-08-20T00:51:14.632Z,0
2022-08-20T00:52:14.363Z,0
2022-08-20T00:53:14.104Z,0
2022-08-20T00:54:14.342Z,0
2022-08-20T00:55:14.079Z,0
2022-08-20T00:56:14.336Z,0
2022-08-20T00:57:14.586Z,0
2022-08-20T00:58:15.178Z,0
2022-08-20T00:59:16.431Z,0
2022-08-20T01:00:14.314Z,0
2022-08-20T01:01:14.552Z,0
2022-08-20T01:02:14.561Z,0
2022-08-20T01:03:15.739Z,0
2022-08-20T01:04:14.535Z,0
2022-08-20T01:05:14.291Z,0
2022-08-20T01:06:14.023Z,0
2022-08-20T01:07:14.264Z,0
2022-08-20T01:08:14.009Z,0
2022-08-20T01:09:14.954Z,0
2022-08-20T01:10:14.047Z,0
2022-08-20T01:11:14.243Z,0
2022-08-20T01:12:13.979Z,0
2022-08-20T01:13:13.996Z,0
2022-08-20T01:14:14.064Z,0
2022-08-20T01:15:14.473Z,0
2022-08-20T01:16:13.973Z,0
2022-08-20T01:17:17.684Z,0
2022-08-20T01:18:13.948Z,0
2022-08-20T01:19:36.883Z,0
2022-08-20T01:20:14.446Z,0
2022-08-20T01:21:14.172Z,0
2022-08-20T01:22:13.916Z,0
2022-08-20T01:23:14.176Z,0
2022-08-20T01:24:14.420Z,0
2022-08-20T01:25:14.154Z,0
2022-08-20T01:26:13.889Z,0
2022-08-20T01:27:14.162Z,0
2022-08-20T01:28:13.625Z,0
2022-08-20T01:29:14.133Z,0
2022-08-20T01:30:14.736Z,0
2022-08-20T01:31:14.372Z,0
2022-08-20T01:32:14.367Z,0
2022-08-20T01:33:14.352Z,0
2022-08-20T01:34:45.925Z,0
2022-08-20T01:35:14.094Z,0
2022-08-20T01:36:17.240Z,0
2022-08-20T01:37:13.576Z,0
2022-08-20T01:38:13.847Z,0
2022-08-20T01:39:14.059Z,0
2022-08-20T01:40:16.483Z,0
2022-08-20T01:41:14.058Z,0
2022-08-20T01:42:14.041Z,0
2022-08-20T01:43:19.612Z,0
2022-08-20T01:44:24.499Z,0
2022-08-20T01:45:14.234Z,0
2022-08-20T01:46:16.206Z,0
2022-08-20T01:47:18.277Z,0
2022-08-20T01:48:15.471Z,0
2022-08-20T01:49:27.753Z,0
2022-08-20T01:50:13.990Z,0
2022-08-20T01:51:13.986Z,0
2022-08-20T01:52:13.989Z,0
2022-08-20T01:53:13.983Z,0
2022-08-20T01:54:15.156Z,0
2022-08-20T01:55:13.972Z,0
2022-08-20T01:56:13.981Z,0
2022-08-20T01:57:14.205Z,0
2022-08-20T01:58:13.950Z,0
2022-08-20T01:59:13.682Z,0
2022-08-20T02:00:24.538Z,0
2022-08-20T02:01:14.158Z,0
2022-08-20T02:02:13.919Z,0
2022-08-20T02:03:13.915Z,0
2022-08-20T02:04:21.884Z,0
2022-08-20T02:05:13.897Z,0
2022-08-20T02:06:13.661Z,0
2022-08-20T02:07:13.894Z,0
2022-08-20T02:08:15.022Z,0
2022-08-20T02:09:18.663Z,0
2022-08-20T02:10:13.872Z,0
2022-08-20T02:11:14.270Z,0
2022-08-20T02:12:13.872Z,0
2022-08-20T02:13:13.861Z,0
2022-08-20T02:14:13.847Z,0
2022-08-20T02:15:13.601Z,0
2022-08-20T02:16:13.580Z,0
2022-08-20T02:17:14.092Z,0
2022-08-20T02:18:14.885Z,0
2022-08-20T02:19:13.820Z,0
2022-08-20T02:20:13.572Z,0
2022-08-20T02:21:13.552Z,0
2022-08-20T02:22:13.540Z,0
2022-08-20T02:23:14.047Z,0
2022-08-20T02:24:16.587Z,0
2022-08-20T02:25:14.038Z,0
2022-08-20T02:26:14.029Z,0
2022-08-20T02:27:13.766Z,0
2022-08-20T02:28:14.032Z,0
2022-08-20T02:29:13.499Z,0
2022-08-20T02:30:27.655Z,0
2022-08-20T02:31:13.234Z,0
2022-08-20T02:32:40.467Z,0
2022-08-20T02:33:14.413Z,0
2022-08-20T02:34:29.393Z,0
2022-08-20T02:35:13.714Z,0
2022-08-20T02:36:13.714Z,0
2022-08-20T02:37:13.718Z,0
2022-08-20T02:38:13.691Z,0
2022-08-20T02:39:14.830Z,0
2022-08-20T02:40:14.187Z,0
2022-08-20T02:41:13.935Z,0
2022-08-20T02:42:13.931Z,0
2022-08-20T02:43:13.664Z,0
2022-08-20T02:44:13.651Z,0
2022-08-20T02:45:21.584Z,0
2022-08-20T02:46:13.385Z,0
2022-08-20T02:47:13.643Z,0
2022-08-20T02:48:13.633Z,0
2022-08-20T02:49:13.880Z,0
2022-08-20T02:50:15.015Z,0
2022-08-20T02:51:13.892Z,0
2022-08-20T02:52:13.359Z,0
2022-08-20T02:53:13.609Z,0
2022-08-20T02:54:13.605Z,0
2022-08-20T02:55:30.340Z,0
2022-08-20T02:56:13.865Z,0
2022-08-20T02:57:13.579Z,0
2022-08-20T02:58:13.608Z,0
2022-08-20T02:59:22.462Z,0
2022-08-20T03:00:13.811Z,0
2022-08-20T03:01:13.847Z,0
2022-08-20T03:02:13.556Z,0
2022-08-20T03:03:13.045Z,0
2022-08-20T03:04:13.793Z,0
2022-08-20T03:05:13.274Z,0
2022-08-20T03:06:13.268Z,0
2022-08-20T03:07:13.525Z,0
2022-08-20T03:08:13.265Z,0
2022-08-20T03:09:13.757Z,0
2022-08-20T03:10:13.265Z,0
2022-08-20T03:11:13.244Z,0
2022-08-20T03:12:13.482Z,0
2022-08-20T03:13:13.494Z,0
2022-08-20T03:14:13.486Z,0
2022-08-20T03:15:24.031Z,0
2022-08-20T03:16:13.715Z,0
2022-08-20T03:17:13.712Z,0
2022-08-20T03:18:13.442Z,0
2022-08-20T03:19:12.940Z,0
2022-08-20T03:20:13.446Z,0
2022-08-20T03:21:19.636Z,0
2022-08-20T03:22:13.429Z,0
2022-08-20T03:23:13.424Z,0
2022-08-20T03:24:13.415Z,0
2022-08-20T03:25:13.153Z,0
2022-08-20T03:26:13.664Z,0
2022-08-20T03:27:16.498Z,0
2022-08-20T03:28:13.633Z,0
2022-08-20T03:29:12.884Z,0
2022-08-20T03:30:13.125Z,0
2022-08-20T03:31:17.128Z,0
2022-08-20T03:32:14.577Z,0
2022-08-20T03:49:57.175Z,4
2022-08-20T03:50:57.433Z,4
2022-08-20T03:52:05.165Z,4
2022-08-20T03:52:57.411Z,4
2022-08-20T03:53:57.141Z,8
2022-08-20T03:54:56.879Z,8
2022-08-20T03:56:06.252Z,8
2022-08-20T03:56:56.881Z,12
2022-08-20T03:57:57.956Z,12
2022-08-20T03:58:57.108Z,12
2022-08-20T04:00:05.558Z,20
2022-08-20T04:00:57.199Z,20
2022-08-20T04:01:57.341Z,20
2022-08-20T04:02:58.850Z,24
2022-08-20T04:04:02.016Z,24
2022-08-20T04:04:56.792Z,24
2022-08-20T04:05:57.048Z,28
2022-08-20T04:06:57.054Z,32
2022-08-20T04:08:02.998Z,36
2022-08-20T04:08:57.028Z,44
2022-08-20T04:09:56.768Z,48
2022-08-20T04:10:56.492Z,60
2022-08-20T04:11:56.745Z,64
2022-08-20T04:12:59.940Z,80
2022-08-20T04:13:59.232Z,92
2022-08-20T04:14:57.251Z,108
2022-08-20T04:15:57.755Z,124
2022-08-20T04:16:58.161Z,136
2022-08-20T04:17:57.246Z,144
2022-08-20T04:19:09.175Z,148
2022-08-20T04:19:56.418Z,156
2022-08-20T04:20:57.174Z,164
2022-08-20T04:21:56.920Z,192
2022-08-20T04:23:06.143Z,228
2022-08-20T04:23:56.646Z,252
2022-08-20T04:24:56.920Z,280
2022-08-20T04:26:00.995Z,292
2022-08-20T04:26:57.143Z,296
2022-08-20T04:27:58.657Z,292
2022-08-20T04:28:56.612Z,288
2022-08-20T04:29:56.846Z,284
2022-08-20T04:30:58.926Z,284
2022-08-20T04:31:56.838Z,304
2022-08-20T04:32:57.850Z,340
2022-08-20T04:33:57.088Z,376
2022-08-20T04:34:56.826Z,404
2022-08-20T04:35:56.830Z,412
2022-08-20T04:36:56.835Z,436
2022-08-20T04:37:57.455Z,468
2022-08-20T04:38:58.332Z,520
2022-08-20T04:40:01.048Z,532
2022-08-20T04:40:56.514Z,584
2022-08-20T04:41:56.774Z,628
2022-08-20T04:43:01.120Z,652
2022-08-20T04:43:56.727Z,660
2022-08-20T04:44:59.331Z,664
2022-08-20T04:45:56.485Z,676
2022-08-20T04:46:56.479Z,692
2022-08-20T04:47:57.223Z,728
2022-08-20T04:48:57.689Z,772
2022-08-20T04:50:02.392Z,812
2022-08-20T04:50:57.747Z,848
2022-08-20T04:51:56.695Z,876
2022-08-20T04:52:56.935Z,920
2022-08-20T04:53:59.500Z,940
2022-08-20T04:54:56.674Z,952
2022-08-20T04:55:56.417Z,952
2022-08-20T04:56:56.159Z,940
2022-08-20T04:57:57.120Z,928
2022-08-20T04:58:56.398Z,928
2022-08-20T05:00:01.395Z,924
2022-08-20T05:00:56.947Z,924
2022-08-20T05:01:56.890Z,920
2022-08-20T05:02:56.380Z,932
2022-08-20T05:03:57.128Z,944
2022-08-20T05:04:56.097Z,936
2022-08-20T05:05:56.343Z,908
2022-08-20T05:06:58.933Z,892
2022-08-20T05:07:56.636Z,992
2022-08-20T05:08:56.076Z,1108
2022-08-20T05:09:56.566Z,1172
2022-08-20T05:11:39.399Z,1180
2022-08-20T05:11:56.561Z,1140
2022-08-20T05:13:04.452Z,1168
2022-08-20T05:13:56.285Z,1408
2022-08-20T05:14:56.793Z,1576
2022-08-20T05:15:56.536Z,1608
2022-08-20T05:16:56.514Z,1672
2022-08-20T05:17:57.309Z,1728
2022-08-20T05:18:59.415Z,1744
2022-08-20T05:19:56.508Z,1760
2022-08-20T05:20:56.235Z,1776
2022-08-20T05:21:56.232Z,1808
2022-08-20T05:22:56.232Z,1828
2022-08-20T05:23:56.615Z,1840
2022-08-20T05:24:59.395Z,1868
2022-08-20T05:25:56.718Z,1896
2022-08-20T05:26:56.448Z,1940
2022-08-20T05:27:56.650Z,1984
2022-08-20T05:29:04.207Z,2028
2022-08-20T05:29:56.641Z,2060
2022-08-20T05:30:56.680Z,2104
2022-08-20T05:31:56.429Z,2140
2022-08-20T05:32:56.668Z,2156
2022-08-20T05:33:55.902Z,2136
2022-08-20T05:34:56.407Z,2148
2022-08-20T05:35:56.646Z,2204
2022-08-20T05:36:58.519Z,2300
2022-08-20T05:37:56.524Z,2384
2022-08-20T05:38:56.662Z,2440
2022-08-20T05:39:56.978Z,2480
2022-08-20T05:40:55.856Z,2500
2022-08-20T05:41:56.350Z,2516
2022-08-20T05:42:56.365Z,2520
2022-08-20T05:43:58.157Z,2528
2022-08-20T05:44:56.341Z,2532
2022-08-20T05:46:01.605Z,2524
2022-08-20T05:46:56.316Z,2500
2022-08-20T05:48:08.193Z,2468
2022-08-20T05:48:59.294Z,2444
2022-08-20T05:49:56.328Z,2452
2022-08-20T05:50:56.301Z,2444
2022-08-20T05:51:56.300Z,2456
2022-08-20T05:52:56.027Z,2560
2022-08-20T05:53:59.355Z,2660
2022-08-20T05:54:56.269Z,2784
2022-08-20T05:55:56.008Z,2908
2022-08-20T05:56:55.999Z,3052
2022-08-20T05:57:56.433Z,3148
2022-08-20T05:58:59.078Z,3276
2022-08-20T05:59:56.235Z,3368
2022-08-20T06:00:56.566Z,3376
2022-08-20T06:01:56.219Z,3428
2022-08-20T06:02:56.470Z,3404
2022-08-20T06:03:56.207Z,3828
2022-08-20T06:05:03.297Z,4076
2022-08-20T06:05:56.201Z,4168
2022-08-20T06:06:56.458Z,4176
2022-08-20T06:08:10.406Z,3872
2022-08-20T06:08:58.127Z,3480
2022-08-20T06:09:55.916Z,3264
2022-08-20T06:10:55.926Z,3644
2022-08-20T06:12:01.465Z,4052
2022-08-20T06:12:56.178Z,4192
2022-08-20T06:13:55.900Z,4576
2022-08-20T06:14:56.401Z,4468
2022-08-20T06:15:55.963Z,3628
2022-08-20T06:17:06.829Z,3136
2022-08-20T06:18:29.541Z,2384
2022-08-20T06:19:01.640Z,2676
2022-08-20T06:19:56.713Z,4456
2022-08-20T06:20:56.378Z,6256
2022-08-20T06:21:56.617Z,6472
2022-08-20T06:22:56.147Z,6592
2022-08-20T06:24:06.992Z,6760
2022-08-20T06:24:55.907Z,6876
2022-08-20T06:25:56.080Z,6868
2022-08-20T06:26:56.330Z,6148
2022-08-20T06:27:56.612Z,5436
2022-08-20T06:29:00.973Z,5660
2022-08-20T06:29:55.546Z,5840
2022-08-20T06:30:56.049Z,6684
2022-08-20T06:31:55.788Z,7748
2022-08-20T06:32:56.303Z,8452
2022-08-20T06:33:55.787Z,8648
2022-08-20T06:34:57.665Z,8864
2022-08-20T06:35:56.025Z,9056
2022-08-20T06:36:56.035Z,9212
2022-08-20T06:37:55.709Z,9268
2022-08-20T06:38:55.762Z,9316
2022-08-20T06:39:58.623Z,9204
2022-08-20T06:40:55.736Z,9060
2022-08-20T06:41:57.775Z,9040
2022-08-20T06:42:56.303Z,9260
2022-08-20T06:43:55.717Z,9632
2022-08-20T06:44:55.982Z,9984
2022-08-20T06:45:56.722Z,10276
2022-08-20T06:46:55.700Z,10624
2022-08-20T06:47:56.187Z,10788
2022-08-20T06:48:56.202Z,10744
2022-08-20T06:49:55.946Z,10408
2022-08-20T06:50:55.943Z,9736
2022-08-20T06:51:58.786Z,9080
2022-08-20T06:53:00.120Z,8724
2022-08-20T06:53:55.937Z,8552
2022-08-20T06:54:56.179Z,8636
2022-08-20T06:55:55.657Z,8984
2022-08-20T06:56:56.175Z,9728
2022-08-20T06:57:55.679Z,10424
2022-08-20T06:58:55.907Z,10648
2022-08-20T07:00:00.995Z,10720
2022-08-20T07:00:55.840Z,10492
2022-08-20T07:01:55.650Z,9992
2022-08-20T07:02:56.463Z,9472
2022-08-20T07:04:02.333Z,9144
2022-08-20T07:04:56.141Z,8720
2022-08-20T07:05:55.906Z,8492
2022-08-20T07:06:55.608Z,8476
2022-08-20T07:07:55.890Z,8532
2022-08-20T07:08:55.613Z,8580
2022-08-20T07:09:56.114Z,8588
2022-08-20T07:10:55.856Z,8608
2022-08-20T07:11:55.854Z,8552
2022-08-20T07:12:56.273Z,8464
2022-08-20T07:13:56.098Z,8380
2022-08-20T07:14:56.098Z,8320
2022-08-20T07:15:59.919Z,8296
2022-08-20T07:16:55.322Z,8284
2022-08-20T07:18:01.770Z,8264
2022-08-20T07:18:55.841Z,8220
2022-08-20T07:19:55.814Z,8124
2022-08-20T07:20:57.812Z,8008
2022-08-20T07:21:55.555Z,7908
2022-08-20T07:22:55.728Z,7832
2022-08-20T07:23:55.908Z,7816
2022-08-20T07:24:55.968Z,7860
2022-08-20T07:25:55.533Z,7948
2022-08-20T07:26:59.198Z,8044
2022-08-20T07:27:55.285Z,8108
2022-08-20T07:28:56.047Z,8040
2022-08-20T07:29:55.778Z,8056
2022-08-20T07:31:20.356Z,7980
2022-08-20T07:31:58.348Z,7840
2022-08-20T07:32:55.705Z,7640
2022-08-20T07:33:58.779Z,7312
2022-08-20T07:34:55.815Z,7100
2022-08-20T07:35:55.771Z,7264
2022-08-20T07:36:57.384Z,7292
2022-08-20T07:37:55.751Z,7256
2022-08-20T07:38:56.866Z,7180
2022-08-20T07:39:56.071Z,7008
2022-08-20T07:40:55.478Z,6764
2022-08-20T07:42:03.915Z,7100
2022-08-20T07:42:55.860Z,7216
2022-08-20T07:43:55.996Z,7236
2022-08-20T07:44:55.978Z,7120
2022-08-20T07:45:59.492Z,7232
2022-08-20T07:46:55.708Z,7364
2022-08-20T07:47:55.724Z,7388
2022-08-20T07:48:56.706Z,7252
2022-08-20T07:49:56.182Z,7200
2022-08-20T07:50:59.882Z,7348
2022-08-20T07:51:56.439Z,7392
2022-08-20T07:52:56.707Z,7348
2022-08-20T07:53:55.989Z,7216
2022-08-20T07:54:56.415Z,7160
2022-08-20T07:56:05.429Z,7160
2022-08-20T07:56:56.850Z,7224
2022-08-20T07:57:56.412Z,7400
2022-08-20T07:58:56.160Z,7336
2022-08-20T07:59:56.408Z,7280
2022-08-20T08:00:56.436Z,7384
2022-08-20T08:01:56.397Z,7340
2022-08-20T08:02:56.798Z,7228
2022-08-20T08:03:57.227Z,7364
2022-08-20T08:04:56.117Z,7392
2022-08-20T08:05:56.372Z,7332
2022-08-20T08:06:56.113Z,7588
2022-08-20T08:07:56.374Z,7796
2022-08-20T08:08:56.784Z,7832
2022-08-20T08:09:56.611Z,7784
2022-08-20T08:10:56.598Z,7420
2022-08-20T08:11:56.475Z,6548
2022-08-20T08:12:56.521Z,5764
2022-08-20T08:13:56.090Z,5508
2022-08-20T08:14:56.348Z,5864
2022-08-20T08:15:57.125Z,6244
2022-08-20T08:16:56.588Z,6104
2022-08-20T08:17:56.081Z,5780
2022-08-20T08:18:56.072Z,5348
2022-08-20T08:19:56.583Z,5396
2022-08-20T08:20:56.057Z,6296
2022-08-20T08:21:56.062Z,6504
2022-08-20T08:22:56.466Z,5980
2022-08-20T08:23:56.299Z,5868
2022-08-20T08:25:04.201Z,5576
2022-08-20T08:25:56.036Z,5308
2022-08-20T08:26:56.543Z,4756
2022-08-20T08:27:56.302Z,4460
2022-08-20T08:28:56.029Z,4372
2022-08-20T08:29:57.530Z,4516
2022-08-20T08:30:56.018Z,4392
2022-08-20T08:31:55.772Z,4316
2022-08-20T08:32:56.690Z,4368
2022-08-20T08:33:56.264Z,4660
2022-08-20T08:34:56.265Z,4832
2022-08-20T08:35:56.258Z,4908
2022-08-20T08:36:58.496Z,4620
2022-08-20T08:37:56.517Z,4504
2022-08-20T08:38:55.998Z,4576
2022-08-20T08:39:56.685Z,4352
2022-08-20T08:41:06.232Z,4328
2022-08-20T08:41:55.986Z,4600
2022-08-20T08:42:56.340Z,4908
2022-08-20T08:43:57.923Z,4960
2022-08-20T08:44:56.459Z,4384
2022-08-20T08:45:56.217Z,3956
2022-08-20T08:46:57.153Z,3816
2022-08-20T08:47:55.953Z,3936
2022-08-20T08:48:56.464Z,4092
2022-08-20T08:49:55.950Z,4016
2022-08-20T08:51:02.470Z,3856
2022-08-20T08:51:55.943Z,3400
2022-08-20T08:52:56.390Z,3180
2022-08-20T08:53:55.676Z,3236
2022-08-20T08:54:56.432Z,3912
2022-08-20T08:55:56.429Z,5168
2022-08-20T08:56:57.686Z,5464
2022-08-20T08:57:56.167Z,5424
2022-08-20T08:58:55.900Z,5372
2022-08-20T09:00:11.992Z,5620
2022-08-20T09:01:13.810Z,5824
2022-08-20T09:02:05.412Z,5796
2022-08-20T09:03:09.882Z,5688
2022-08-20T09:04:04.674Z,5724
2022-08-20T09:05:04.874Z,5512
2022-08-20T09:06:05.113Z,5180
2022-08-20T09:07:04.896Z,4760
2022-08-20T09:08:04.862Z,4208
2022-08-20T09:09:05.115Z,3516
2022-08-20T09:10:04.625Z,3416
2022-08-20T09:11:05.102Z,3184
2022-08-20T09:12:04.592Z,2736
2022-08-20T09:13:05.246Z,2680
2022-08-20T09:14:07.740Z,2836
2022-08-20T09:15:04.616Z,3640
2022-08-20T09:16:04.601Z,4116
2022-08-20T09:17:05.100Z,4384
2022-08-20T09:18:06.556Z,4588
2022-08-20T09:19:04.588Z,4636
2022-08-20T09:20:04.827Z,4456
2022-08-20T09:21:05.353Z,4080
2022-08-20T09:22:05.085Z,3668
2022-08-20T09:23:05.030Z,3516
2022-08-20T09:24:04.824Z,3160
2022-08-20T09:25:05.327Z,2632
2022-08-20T09:26:04.811Z,2388
2022-08-20T09:27:05.312Z,2296
2022-08-20T09:28:08.475Z,2676
2022-08-20T09:29:06.476Z,2904
2022-08-20T09:30:04.855Z,3380
2022-08-20T09:31:07.019Z,3852
2022-08-20T09:32:07.326Z,3892
2022-08-20T09:33:05.557Z,3820
2022-08-20T09:34:04.780Z,3928
2022-08-20T09:35:09.515Z,3968
2022-08-20T09:36:25.590Z,4012
2022-08-20T09:37:05.025Z,3988
2022-08-20T09:38:04.931Z,3936
2022-08-20T09:39:05.559Z,4000
2022-08-20T09:40:05.524Z,4036
2022-08-20T09:41:05.011Z,4084
2022-08-20T09:42:04.999Z,4112
2022-08-20T09:43:05.359Z,4148
2022-08-20T09:44:04.729Z,4200
2022-08-20T09:45:05.603Z,4284
2022-08-20T09:46:04.720Z,4376
2022-08-20T09:47:04.723Z,4476
2022-08-20T09:48:05.954Z,4584
2022-08-20T09:49:05.248Z,4700
2022-08-20T09:50:05.220Z,4820
2022-08-20T09:51:05.010Z,4948
2022-08-20T09:52:05.203Z,5072
2022-08-20T09:53:05.216Z,5184
2022-08-20T09:54:05.607Z,5272
2022-08-20T09:55:04.944Z,5332
2022-08-20T09:56:05.190Z,5348
2022-08-20T09:57:04.932Z,5328
2022-08-20T09:58:05.120Z,5444
2022-08-20T09:59:09.593Z,5572
2022-08-20T10:00:04.688Z,5668
2022-08-20T10:01:05.172Z,5860
2022-08-20T10:02:05.352Z,6044
2022-08-20T10:03:04.396Z,6156
2022-08-20T10:04:05.169Z,6092
2022-08-20T10:05:04.653Z,5856
2022-08-20T10:06:05.371Z,5336
2022-08-20T10:07:04.627Z,4564
2022-08-20T10:08:05.189Z,4224
2022-08-20T10:09:04.620Z,3980
2022-08-20T10:10:04.656Z,4752
2022-08-20T10:11:04.369Z,5328
2022-08-20T10:12:04.957Z,5564
2022-08-20T10:13:04.595Z,5820
2022-08-20T10:14:05.352Z,6096
2022-08-20T10:15:04.839Z,6336
2022-08-20T10:16:04.601Z,6424
2022-08-20T10:17:07.093Z,6412
2022-08-20T10:18:05.222Z,6284
2022-08-20T10:19:05.108Z,6148
2022-08-20T10:20:04.572Z,5924
2022-08-20T10:21:04.584Z,5472
2022-08-20T10:22:04.311Z,4824
2022-08-20T10:23:04.566Z,4440
2022-08-20T10:24:04.827Z,4628
2022-08-20T10:25:04.800Z,5052
2022-08-20T10:26:04.545Z,5448
2022-08-20T10:27:05.051Z,5688
2022-08-20T10:28:05.303Z,5728
2022-08-20T10:29:04.541Z,5632
2022-08-20T10:30:04.523Z,5480
2022-08-20T10:31:04.520Z,5420
2022-08-20T10:32:04.776Z,5460
2022-08-20T10:33:05.016Z,5620
2022-08-20T10:34:04.511Z,5800
2022-08-20T10:35:05.031Z,5832
2022-08-20T10:36:07.104Z,5780
2022-08-20T10:37:04.503Z,5716
2022-08-20T10:38:05.059Z,5700
2022-08-20T10:39:04.495Z,5720
2022-08-20T10:40:04.797Z,5700
2022-08-20T10:41:04.485Z,5664
2022-08-20T10:42:06.283Z,5716
2022-08-20T10:43:04.739Z,5748
2022-08-20T10:44:04.472Z,5664
2022-08-20T10:45:04.750Z,5544
2022-08-20T10:46:04.203Z,5404
2022-08-20T10:47:04.725Z,5240
2022-08-20T10:48:05.306Z,5140
2022-08-20T10:49:04.207Z,5100
2022-08-20T10:50:04.721Z,5060
2022-08-20T10:51:04.703Z,5020
2022-08-20T10:52:11.069Z,4912
2022-08-20T10:53:04.693Z,4744
2022-08-20T10:54:09.436Z,4556
2022-08-20T10:55:04.681Z,4452
2022-08-20T10:56:04.694Z,4240
2022-08-20T10:57:04.453Z,3984
2022-08-20T10:58:04.936Z,3736
2022-08-20T10:59:04.667Z,3620
2022-08-20T11:00:05.229Z,3696
2022-08-20T11:01:04.671Z,3688
2022-08-20T11:02:04.551Z,3668
2022-08-20T11:03:04.908Z,3692
2022-08-20T11:04:04.926Z,3780
2022-08-20T11:05:04.919Z,3996
2022-08-20T11:06:04.638Z,4248
2022-08-20T11:07:04.645Z,4388
2022-08-20T11:08:04.953Z,4536
2022-08-20T11:09:04.899Z,4728
2022-08-20T11:10:04.926Z,4924
2022-08-20T11:11:04.613Z,5052
2022-08-20T11:12:04.885Z,5096
2022-08-20T11:13:04.884Z,5180
2022-08-20T11:14:05.788Z,5316
2022-08-20T11:15:04.348Z,5448
2022-08-20T11:16:04.344Z,5500
2022-08-20T11:17:04.613Z,5572
2022-08-20T11:18:04.898Z,5704
2022-08-20T11:19:04.861Z,5884
2022-08-20T11:20:04.077Z,6044
2022-08-20T11:21:04.658Z,6148
2022-08-20T11:22:04.346Z,6248
2022-08-20T11:23:04.581Z,6344
2022-08-20T11:24:09.531Z,6424
2022-08-20T11:25:04.577Z,6488
2022-08-20T11:26:04.414Z,6540
2022-08-20T11:27:04.854Z,6580
2022-08-20T11:28:04.873Z,6608
2022-08-20T11:29:04.793Z,6652
2022-08-20T11:30:04.020Z,6700
2022-08-20T11:31:04.713Z,6784
2022-08-20T11:32:05.731Z,6896
2022-08-20T11:33:04.954Z,7016
2022-08-20T11:34:06.526Z,7136
2022-08-20T11:36:04.700Z,7308
2022-08-20T11:37:04.941Z,7412
2022-08-20T11:38:05.866Z,7524
2022-08-20T11:39:04.680Z,7588
2022-08-20T11:40:05.500Z,7672
2022-08-20T11:41:04.655Z,7692
2022-08-20T11:42:05.170Z,7712
2022-08-20T11:43:22.726Z,7680
2022-08-20T11:44:27.335Z,7680
2022-08-20T11:45:04.655Z,7680
2022-08-20T11:46:04.645Z,7696
2022-08-20T11:47:04.642Z,7684
2022-08-20T11:48:07.213Z,7544
2022-08-20T11:49:05.129Z,7404
2022-08-20T11:50:04.890Z,7264
2022-08-20T11:51:04.364Z,7104
2022-08-20T11:52:05.843Z,6968
2022-08-20T11:53:06.059Z,6848
2022-08-20T11:54:08.368Z,6828
2022-08-20T11:55:04.624Z,6972
2022-08-20T11:56:06.206Z,7252
2022-08-20T11:57:04.878Z,7548
2022-08-20T11:58:07.427Z,7736
2022-08-20T11:59:05.105Z,7896
2022-08-20T12:00:04.606Z,7984
2022-08-20T12:01:04.871Z,8092
2022-08-20T12:02:16.465Z,8172
2022-08-20T12:03:11.800Z,8192
2022-08-20T12:04:04.840Z,8116
2022-08-20T12:05:04.580Z,8008
2022-08-20T12:06:04.589Z,7880
2022-08-20T12:07:07.667Z,7784
2022-08-20T12:08:05.129Z,7756
2022-08-20T12:09:05.090Z,7684
2022-08-20T12:10:04.816Z,7592
2022-08-20T12:11:05.011Z,7524
2022-08-20T12:12:05.058Z,7376
2022-08-20T12:13:07.156Z,7244
2022-08-20T12:14:04.798Z,7156
2022-08-20T12:15:04.804Z,7072
2022-08-20T12:16:04.796Z,7000
2022-08-20T12:17:04.288Z,6828
2022-08-20T12:18:04.557Z,6724
2022-08-20T12:19:04.781Z,6796
2022-08-20T12:20:04.528Z,6892
2022-08-20T12:21:04.267Z,6880
2022-08-20T12:22:27.959Z,6916
2022-08-20T12:23:05.258Z,7020
2022-08-20T12:24:04.768Z,6796
2022-08-20T12:25:05.035Z,6588
2022-08-20T12:26:06.237Z,6440
2022-08-20T12:27:04.762Z,6468
2022-08-20T12:28:04.750Z,6536
2022-08-20T12:29:04.252Z,6748
2022-08-20T12:30:04.792Z,7012
2022-08-20T12:31:04.497Z,7404
2022-08-20T12:32:04.753Z,7704
2022-08-20T12:33:05.386Z,7736
2022-08-20T12:34:04.477Z,7648
2022-08-20T12:35:04.756Z,7464
2022-08-20T12:36:04.989Z,7180
2022-08-20T12:37:04.998Z,7072
2022-08-20T12:38:05.188Z,7024
2022-08-20T12:39:04.574Z,6936
2022-08-20T12:40:05.267Z,6976
2022-08-20T12:41:04.726Z,7220
2022-08-20T12:42:04.962Z,7460
2022-08-20T12:43:05.182Z,7640
2022-08-20T12:44:04.452Z,7556
2022-08-20T12:45:04.266Z,7552
2022-08-20T12:46:04.465Z,7684
2022-08-20T12:47:04.709Z,7736
2022-08-20T12:48:04.691Z,7960
2022-08-20T12:49:04.963Z,8172
2022-08-20T12:50:06.792Z,8488
2022-08-20T12:51:04.435Z,8752
2022-08-20T12:52:04.465Z,8948
2022-08-20T12:53:04.999Z,9072
2022-08-20T12:54:04.164Z,9208
2022-08-20T12:55:04.999Z,9476
2022-08-20T12:56:04.471Z,9752
2022-08-20T12:57:09.589Z,9952
2022-08-20T12:58:04.445Z,9944
2022-08-20T12:59:04.674Z,9792
2022-08-20T13:00:08.476Z,9820
2022-08-20T13:01:04.904Z,10000
2022-08-20T13:02:23.615Z,10024
2022-08-20T13:03:04.898Z,10016
2022-08-20T13:04:04.398Z,10000
2022-08-20T13:05:11.238Z,9948
2022-08-20T13:06:04.394Z,9856
2022-08-20T13:07:04.661Z,9760
2022-08-20T13:08:04.649Z,9692
2022-08-20T13:09:04.639Z,9604
2022-08-20T13:10:04.777Z,9512
2022-08-20T13:11:04.657Z,9448
2022-08-20T13:12:08.197Z,9412
2022-08-20T13:13:04.959Z,9364
2022-08-20T13:14:04.123Z,9312
2022-08-20T13:15:04.371Z,9252
2022-08-20T13:16:04.641Z,9196
2022-08-20T13:17:08.873Z,9124
2022-08-20T13:18:04.657Z,9056
2022-08-20T13:19:04.875Z,8976
2022-08-20T13:20:04.926Z,8908
2022-08-20T13:21:04.390Z,8840
2022-08-20T13:22:04.106Z,8788
2022-08-20T13:23:04.602Z,8736
2022-08-20T13:24:04.854Z,8700
2022-08-20T13:25:04.829Z,8692
2022-08-20T13:26:04.348Z,8708
2022-08-20T13:27:04.869Z,8748
2022-08-20T13:28:04.401Z,8812
2022-08-20T13:29:05.297Z,8908
2022-08-20T13:30:06.250Z,9044
2022-08-20T13:31:04.596Z,9184
2022-08-20T13:32:05.407Z,9356
2022-08-20T13:33:05.403Z,9536
2022-08-20T13:34:05.401Z,9736
2022-08-20T13:35:05.403Z,9924
2022-08-20T13:36:07.453Z,10124
2022-08-20T13:37:06.512Z,10304
2022-08-20T13:38:06.466Z,10472
2022-08-20T13:39:06.184Z,10612
2022-08-20T13:40:07.038Z,10764
2022-08-20T13:41:06.310Z,10880
2022-08-20T13:42:06.702Z,11012
2022-08-20T13:43:14.631Z,11140
2022-08-20T13:44:06.510Z,11232
2022-08-20T13:45:06.251Z,11392
2022-08-20T13:46:06.259Z,11452
2022-08-20T13:47:05.988Z,11524
2022-08-20T13:48:15.079Z,11596
2022-08-20T13:49:06.250Z,11652
2022-08-20T13:50:06.347Z,11684
2022-08-20T13:51:11.498Z,11672
2022-08-20T13:52:08.310Z,11688
2022-08-20T13:53:09.564Z,11728
2022-08-20T13:54:06.164Z,11764
2022-08-20T13:55:10.322Z,11812
2022-08-20T13:56:05.992Z,11860
2022-08-20T13:57:06.233Z,11900
2022-08-20T13:58:05.969Z,11924
2022-08-20T13:59:06.224Z,11928
2022-08-20T14:00:06.085Z,11916